createdAt,value
2019-04-03T00:00:13.002Z,9.10
2019-04-03T00:01:12.863Z,9.06
2019-04-03T00:02:12.845Z,9.01
2019-04-03T00:03:12.843Z,9.06
2019-04-03T00:04:12.794Z,9.17
2019-04-03T00:05:12.782Z,9.20
2019-04-03T00:06:12.736Z,9.17
2019-04-03T00:07:12.698Z,9.20
2019-04-03T00:08:12.777Z,9.22
2019-04-03T00:09:12.737Z,9.27
2019-04-03T00:10:12.640Z,9.24
2019-04-03T00:11:12.585Z,9.26
2019-04-03T00:12:12.684Z,9.32
2019-04-03T00:13:12.566Z,9.27
2019-04-03T00:14:12.993Z,9.20
2019-04-03T00:15:13.675Z,9.32
2019-04-03T00:16:15.271Z,9.32
2019-04-03T00:17:15.028Z,9.34
2019-04-03T00:18:12.404Z,9.40
2019-04-03T00:19:12.395Z,9.37
2019-04-03T00:20:14.350Z,9.35
2019-04-03T00:21:12.408Z,9.41
2019-04-03T00:22:14.286Z,9.41
2019-04-03T00:23:12.237Z,9.52
2019-04-03T00:24:13.219Z,9.44
2019-04-03T00:25:12.250Z,9.55
2019-04-03T00:26:13.174Z,9.49
2019-04-03T00:27:12.140Z,9.52
2019-04-03T00:28:12.103Z,9.50
2019-04-03T00:29:12.078Z,9.59
2019-04-03T00:30:12.048Z,9.55
2019-04-03T00:31:12.092Z,9.53
2019-04-03T00:32:12.008Z,9.60
2019-04-03T00:33:11.963Z,9.63
2019-04-03T00:34:12.055Z,9.62
2019-04-03T00:35:11.912Z,9.65
2019-04-03T00:36:11.891Z,9.62
2019-04-03T00:37:11.849Z,9.67
2019-04-03T00:38:11.833Z,9.60
2019-04-03T00:39:11.805Z,9.60
2019-04-03T00:40:11.804Z,9.62
2019-04-03T00:41:11.749Z,9.59
2019-04-03T00:42:11.712Z,9.63
2019-04-03T00:43:11.731Z,9.65
2019-04-03T00:44:11.657Z,9.62
2019-04-03T00:45:11.639Z,9.62
2019-04-03T00:46:11.612Z,9.59
2019-04-03T00:47:11.652Z,9.63
2019-04-03T00:48:11.546Z,9.62
2019-04-03T00:49:11.603Z,9.70
2019-04-03T00:50:11.475Z,9.59
2019-04-03T00:51:11.468Z,9.65
2019-04-03T00:52:11.442Z,9.68
2019-04-03T00:53:11.531Z,9.73
2019-04-03T00:54:11.363Z,9.70
2019-04-03T00:55:11.330Z,9.70
2019-04-03T00:56:11.407Z,9.75
2019-04-03T00:57:11.275Z,9.74
2019-04-03T00:58:11.238Z,9.77
2019-04-03T00:59:11.214Z,9.78
2019-04-03T01:00:11.190Z,9.74
2019-04-03T01:01:11.358Z,9.70
2019-04-03T01:02:11.132Z,9.70
2019-04-03T01:03:11.123Z,9.75
2019-04-03T01:04:11.261Z,9.70
2019-04-03T01:05:11.054Z,9.75
2019-04-03T01:06:11.027Z,9.74
2019-04-03T01:07:11.005Z,9.75
2019-04-03T01:08:10.988Z,9.71
2019-04-03T01:09:10.940Z,9.67
2019-04-03T01:10:10.930Z,9.71
2019-04-03T01:11:10.907Z,9.74
2019-04-03T01:12:10.925Z,9.73
2019-04-03T01:13:10.853Z,9.71
2019-04-03T01:14:10.835Z,9.71
2019-04-03T01:15:10.866Z,9.71
2019-04-03T01:16:10.799Z,9.68
2019-04-03T01:17:10.742Z,9.60
2019-04-03T01:18:10.873Z,9.71
2019-04-03T01:19:10.685Z,9.67
2019-04-03T01:20:10.641Z,9.62
2019-04-03T01:21:10.607Z,9.73
2019-04-03T01:22:10.586Z,9.62
2019-04-03T01:23:10.546Z,9.67
2019-04-03T01:24:10.518Z,9.68
2019-04-03T01:25:10.481Z,9.56
2019-04-03T01:26:10.517Z,9.60
2019-04-03T01:27:11.938Z,9.60
2019-04-03T01:28:11.733Z,9.60
2019-04-03T01:29:10.604Z,9.58
2019-04-03T01:30:10.408Z,9.56
2019-04-03T01:31:10.328Z,9.68
2019-04-03T01:32:10.293Z,9.49
2019-04-03T01:33:10.263Z,9.56
2019-04-03T01:34:10.267Z,9.60
2019-04-03T01:35:10.212Z,9.52
2019-04-03T01:36:10.182Z,9.52
2019-04-03T01:37:10.218Z,9.56
2019-04-03T01:38:10.133Z,9.63
2019-04-03T01:39:10.107Z,9.59
2019-04-03T01:40:10.071Z,9.50
2019-04-03T01:41:11.042Z,9.50
2019-04-03T01:42:10.054Z,9.48
2019-04-03T01:43:09.965Z,9.52
2019-04-03T01:44:09.948Z,9.44
2019-04-03T01:45:09.968Z,9.50
2019-04-03T01:46:09.888Z,9.56
2019-04-03T01:47:09.905Z,9.55
2019-04-03T01:48:09.823Z,9.45
2019-04-03T01:49:09.873Z,9.48
2019-04-03T01:50:09.775Z,9.49
2019-04-03T01:51:09.747Z,9.48
2019-04-03T01:52:09.732Z,9.44
2019-04-03T01:53:10.981Z,9.35
2019-04-03T01:54:09.667Z,9.44
2019-04-03T01:55:16.485Z,9.31
2019-04-03T01:56:09.630Z,9.48
2019-04-03T01:57:09.592Z,9.44
2019-04-03T01:58:09.555Z,9.42
2019-04-03T01:59:09.589Z,9.35
2019-04-03T02:00:09.519Z,9.40
2019-04-03T02:01:09.515Z,9.40
2019-04-03T02:02:09.452Z,9.31
2019-04-03T02:03:10.278Z,9.37
2019-04-03T02:04:12.025Z,9.40
2019-04-03T02:05:12.071Z,9.38
2019-04-03T02:06:09.349Z,9.35
2019-04-03T02:07:09.329Z,9.41
2019-04-03T02:08:09.276Z,9.37
2019-04-03T02:09:10.296Z,9.38
2019-04-03T02:10:09.230Z,9.41
2019-04-03T02:11:10.200Z,9.38
2019-04-03T02:12:09.158Z,9.45
2019-04-03T02:13:09.146Z,9.38
2019-04-03T02:14:09.112Z,9.37
2019-04-03T02:15:09.077Z,9.37
2019-04-03T02:16:09.040Z,9.40
2019-04-03T02:17:10.148Z,9.37
2019-04-03T02:18:08.988Z,9.37
2019-04-03T02:19:08.948Z,9.34
2019-04-03T02:20:09.032Z,9.40
2019-04-03T02:21:09.914Z,9.34
2019-04-03T02:22:09.021Z,9.37
2019-04-03T02:23:08.847Z,9.40
2019-04-03T02:24:08.976Z,9.30
2019-04-03T02:25:08.781Z,9.37
2019-04-03T02:26:08.934Z,9.37
2019-04-03T02:27:10.731Z,9.34
2019-04-03T02:28:08.710Z,9.32
2019-04-03T02:29:09.681Z,9.37
2019-04-03T02:30:12.277Z,9.35
2019-04-03T02:31:08.659Z,9.35
2019-04-03T02:32:08.641Z,9.34
2019-04-03T02:33:09.562Z,9.35
2019-04-03T02:34:08.718Z,9.26
2019-04-03T02:35:08.564Z,9.37
2019-04-03T02:36:11.434Z,9.34
2019-04-03T02:37:08.727Z,9.42
2019-04-03T02:38:08.422Z,9.32
2019-04-03T02:39:08.418Z,9.26
2019-04-03T02:40:08.544Z,9.27
2019-04-03T02:41:08.344Z,9.37
2019-04-03T02:42:09.637Z,9.24
2019-04-03T02:43:09.380Z,9.34
2019-04-03T02:44:08.465Z,9.17
2019-04-03T02:45:08.241Z,9.19
2019-04-03T02:46:08.200Z,9.16
2019-04-03T02:47:08.427Z,9.10
2019-04-03T02:48:08.424Z,9.13
2019-04-03T02:49:10.149Z,9.01
2019-04-03T02:50:08.096Z,9.04
2019-04-03T02:51:08.052Z,9.04
2019-04-03T02:52:08.048Z,9.04
2019-04-03T02:53:08.002Z,9.00
2019-04-03T02:54:07.954Z,8.94
2019-04-03T02:55:09.005Z,8.97
2019-04-03T02:56:11.866Z,8.88
2019-04-03T02:57:08.892Z,8.91
2019-04-03T02:58:07.877Z,8.85
2019-04-03T02:59:07.836Z,8.88
2019-04-03T03:00:07.798Z,8.88
2019-04-03T03:01:07.964Z,8.88
2019-04-03T03:02:11.450Z,8.86
2019-04-03T03:03:07.715Z,8.82
2019-04-03T03:04:07.673Z,8.85
2019-04-03T03:05:07.977Z,8.91
2019-04-03T03:06:07.624Z,8.82
2019-04-03T03:07:07.825Z,8.79
2019-04-03T03:08:09.110Z,8.79
2019-04-03T03:09:07.623Z,8.80
2019-04-03T03:10:07.506Z,8.80
2019-04-03T03:11:07.745Z,8.76
2019-04-03T03:12:07.437Z,8.79
2019-04-03T03:13:07.544Z,8.67
2019-04-03T03:14:07.839Z,8.78
2019-04-03T03:15:10.962Z,8.86
2019-04-03T03:16:07.528Z,8.76
2019-04-03T03:17:07.987Z,8.75
2019-04-03T03:18:07.335Z,8.73
2019-04-03T03:19:07.348Z,8.68
2019-04-03T03:20:07.983Z,8.64
2019-04-03T03:21:07.369Z,8.57
2019-04-03T03:22:07.175Z,8.65
2019-04-03T03:23:07.334Z,8.70
2019-04-03T03:24:07.128Z,8.73
2019-04-03T03:25:07.082Z,8.64
2019-04-03T03:26:07.331Z,8.54
2019-04-03T03:27:09.506Z,8.63
2019-04-03T03:28:09.024Z,8.55
2019-04-03T03:29:16.572Z,8.50
2019-04-03T03:30:30.366Z,8.55
2019-04-03T03:31:57.634Z,8.52
2019-04-03T03:32:15.443Z,8.54
2019-04-03T03:33:27.286Z,8.47
2019-04-03T03:34:06.833Z,8.54
2019-04-03T03:35:13.795Z,8.46
2019-04-03T03:36:07.229Z,8.49
2019-04-03T03:37:06.824Z,8.37
2019-04-03T03:38:08.003Z,8.46
2019-04-03T03:39:10.348Z,8.47
2019-04-03T03:40:08.099Z,8.45
2019-04-03T03:41:08.828Z,8.46
2019-04-03T03:42:06.595Z,8.31
2019-04-03T03:43:07.618Z,8.42
2019-04-03T03:44:09.563Z,8.37
2019-04-03T03:45:06.527Z,8.42
2019-04-03T03:46:13.470Z,8.27
2019-04-03T03:47:06.449Z,8.27
2019-04-03T03:48:09.386Z,8.32
2019-04-03T03:49:17.490Z,8.31
2019-04-03T03:50:12.957Z,8.24
2019-04-03T03:51:06.401Z,8.29
2019-04-03T03:52:06.474Z,8.28
2019-04-03T03:53:13.441Z,8.24
2019-04-03T03:54:06.458Z,8.21
2019-04-03T03:55:06.271Z,8.21
2019-04-03T03:56:15.180Z,8.25
2019-04-03T03:57:07.328Z,8.27
2019-04-03T03:58:14.168Z,8.07
2019-04-03T03:59:06.273Z,8.25
2019-04-03T04:00:06.097Z,8.18
2019-04-03T04:01:14.280Z,8.25
2019-04-03T04:02:06.573Z,8.17
2019-04-03T04:03:28.073Z,8.13
2019-04-03T04:04:05.979Z,8.09
2019-04-03T04:05:10.427Z,8.07
2019-04-03T04:06:06.037Z,8.04
2019-04-03T04:07:05.943Z,8.07
2019-04-03T04:08:09.147Z,8.03
2019-04-03T04:09:06.004Z,7.99
2019-04-03T04:10:05.852Z,8.00
2019-04-03T04:11:05.763Z,8.06
2019-04-03T04:12:07.355Z,8.12
2019-04-03T04:13:05.816Z,8.06
2019-04-03T04:14:05.952Z,8.12
2019-04-03T04:15:05.689Z,8.00
2019-04-03T04:16:05.639Z,8.03
2019-04-03T04:17:08.593Z,8.00
2019-04-03T04:18:05.581Z,7.99
2019-04-03T04:19:05.544Z,7.96
2019-04-03T04:20:06.226Z,7.95
2019-04-03T04:21:09.719Z,8.00
2019-04-03T04:22:05.456Z,7.96
2019-04-03T04:23:05.426Z,7.95
2019-04-03T04:24:05.456Z,7.96
2019-04-03T04:25:05.436Z,7.94
2019-04-03T04:26:05.343Z,7.91
2019-04-03T04:27:05.368Z,7.95
2019-04-03T04:28:08.326Z,7.92
2019-04-03T04:29:05.258Z,8.02
2019-04-03T04:30:05.268Z,7.91
2019-04-03T04:31:05.298Z,7.91
2019-04-03T04:32:05.162Z,7.94
2019-04-03T04:33:05.203Z,7.92
2019-04-03T04:34:05.161Z,7.92
2019-04-03T04:35:05.078Z,7.94
2019-04-03T04:36:05.061Z,7.96
2019-04-03T04:37:05.124Z,7.92
2019-04-03T04:38:05.024Z,7.91
2019-04-03T04:39:05.038Z,7.94
2019-04-03T04:40:04.945Z,7.94
2019-04-03T04:41:04.915Z,7.92
2019-04-03T04:42:04.977Z,7.91
2019-04-03T04:43:07.422Z,7.94
2019-04-03T04:44:04.843Z,7.91
2019-04-03T04:45:04.822Z,7.92
2019-04-03T04:46:04.771Z,7.96
2019-04-03T04:47:04.747Z,7.92
2019-04-03T04:48:04.847Z,7.99
2019-04-03T04:49:04.722Z,7.95
2019-04-03T04:50:04.665Z,7.94
2019-04-03T04:51:04.628Z,7.94
2019-04-03T04:52:04.681Z,7.89
2019-04-03T04:53:04.562Z,8.06
2019-04-03T04:54:04.551Z,8.00
2019-04-03T04:55:04.749Z,7.95
2019-04-03T04:56:04.779Z,7.92
2019-04-03T04:57:04.470Z,7.95
2019-04-03T04:58:04.912Z,7.91
2019-04-03T04:59:04.443Z,8.02
2019-04-03T05:00:04.395Z,8.00
2019-04-03T05:01:04.572Z,7.92
2019-04-03T05:02:04.365Z,7.96
2019-04-03T05:03:04.322Z,7.95
2019-04-03T05:04:04.266Z,8.06
2019-04-03T05:05:04.256Z,7.95
2019-04-03T05:06:05.221Z,8.02
2019-04-03T05:07:04.217Z,7.94
2019-04-03T05:08:04.567Z,7.95
2019-04-03T05:09:04.461Z,8.03
2019-04-03T05:10:06.568Z,7.95
2019-04-03T05:11:05.445Z,7.91
2019-04-03T05:12:05.042Z,8.07
2019-04-03T05:13:04.013Z,8.03
2019-04-03T05:14:04.002Z,8.02
2019-04-03T05:15:03.945Z,7.96
2019-04-03T05:16:04.056Z,7.92
2019-04-03T05:17:04.032Z,8.06
2019-04-03T05:18:04.561Z,7.99
2019-04-03T05:19:10.444Z,8.04
2019-04-03T05:20:04.073Z,7.96
2019-04-03T05:21:03.785Z,7.92
2019-04-03T05:22:03.852Z,7.95
2019-04-03T05:23:03.844Z,8.00
2019-04-03T05:24:11.436Z,8.02
2019-04-03T05:25:03.682Z,8.07
2019-04-03T05:26:10.520Z,8.09
2019-04-03T05:27:03.730Z,7.96
2019-04-03T05:28:04.426Z,7.99
2019-04-03T05:29:04.707Z,7.95
2019-04-03T05:30:05.535Z,8.09
2019-04-03T05:31:03.494Z,7.99
2019-04-03T05:32:04.582Z,8.09
2019-04-03T05:33:04.535Z,8.03
2019-04-03T05:34:03.474Z,8.12
2019-04-03T05:35:03.667Z,8.14
2019-04-03T05:36:03.595Z,8.24
2019-04-03T05:37:03.347Z,8.20
2019-04-03T05:38:04.410Z,8.22
2019-04-03T05:39:04.540Z,8.13
2019-04-03T05:40:03.505Z,8.22
2019-04-03T05:41:03.242Z,8.22
2019-04-03T05:42:03.183Z,8.29
2019-04-03T05:43:10.037Z,8.24
2019-04-03T05:44:03.308Z,8.22
2019-04-03T05:45:04.581Z,8.18
2019-04-03T05:46:05.139Z,8.12
2019-04-03T05:47:03.074Z,8.12
2019-04-03T05:48:03.070Z,8.09
2019-04-03T05:49:02.996Z,8.29
2019-04-03T05:50:02.996Z,8.20
2019-04-03T05:51:02.972Z,8.21
2019-04-03T05:52:04.659Z,8.14
2019-04-03T05:53:05.640Z,8.25
2019-04-03T05:54:02.858Z,8.17
2019-04-03T05:55:02.806Z,8.21
2019-04-03T05:56:02.892Z,8.25
2019-04-03T05:57:02.960Z,8.27
2019-04-03T05:58:03.129Z,8.22
2019-04-03T05:59:03.075Z,8.29
2019-04-03T06:00:04.403Z,8.24
2019-04-03T06:01:05.456Z,8.20
2019-04-03T06:02:14.210Z,8.27
2019-04-03T06:03:02.566Z,8.27
2019-04-03T06:04:10.639Z,8.25
2019-04-03T06:05:02.564Z,8.31
2019-04-03T06:06:02.514Z,8.25
2019-04-03T06:07:02.526Z,8.25
2019-04-03T06:08:10.044Z,8.31
2019-04-03T06:09:02.557Z,8.34
2019-04-03T06:10:02.830Z,8.29
2019-04-03T06:11:04.003Z,8.27
2019-04-03T06:12:02.324Z,8.39
2019-04-03T06:13:05.096Z,8.28
2019-04-03T06:14:19.025Z,8.29
2019-04-03T06:15:02.265Z,8.31
2019-04-03T06:16:03.218Z,8.28
2019-04-03T06:17:02.177Z,8.31
2019-04-03T06:18:02.177Z,8.34
2019-04-03T06:19:02.106Z,8.29
2019-04-03T06:20:02.236Z,8.36
2019-04-03T06:21:02.045Z,8.29
2019-04-03T06:22:20.921Z,8.25
2019-04-03T06:23:02.133Z,8.34
2019-04-03T06:24:01.961Z,8.34
2019-04-03T06:25:02.291Z,8.28
2019-04-03T06:26:08.530Z,8.29
2019-04-03T06:27:01.898Z,8.32
2019-04-03T06:29:01.912Z,8.27
2019-04-03T06:30:02.090Z,8.27
2019-04-03T06:31:01.774Z,8.24
2019-04-03T06:32:05.744Z,8.29
2019-04-03T06:33:02.187Z,8.29
2019-04-03T06:34:10.726Z,8.25
2019-04-03T06:35:01.650Z,8.27
2019-04-03T06:36:01.857Z,8.31
2019-04-03T06:37:01.606Z,8.24
2019-04-03T06:38:03.610Z,8.22
2019-04-03T06:39:01.583Z,8.14
2019-04-03T06:40:02.959Z,8.22
2019-04-03T06:41:01.469Z,8.25
2019-04-03T06:42:01.468Z,8.25
2019-04-03T06:43:01.458Z,8.22
2019-04-03T06:44:03.432Z,8.24
2019-04-03T06:45:01.376Z,8.25
2019-04-03T06:46:03.737Z,8.25
2019-04-03T06:47:01.581Z,8.25
2019-04-03T06:48:04.235Z,8.25
2019-04-03T06:49:01.440Z,8.28
2019-04-03T06:50:01.317Z,8.24
2019-04-03T06:51:01.383Z,8.28
2019-04-03T06:52:01.232Z,8.27
2019-04-03T06:53:08.116Z,8.22
2019-04-03T06:54:01.103Z,8.25
2019-04-03T06:55:03.013Z,8.24
2019-04-03T06:56:01.222Z,8.13
2019-04-03T06:57:01.065Z,8.13
2019-04-03T06:58:01.009Z,8.22
2019-04-03T06:59:17.097Z,8.22
2019-04-03T07:00:01.248Z,8.27
2019-04-03T07:01:00.938Z,8.24
2019-04-03T07:02:01.088Z,8.25
2019-04-03T07:03:02.923Z,8.27
2019-04-03T07:04:00.868Z,8.27
2019-04-03T07:05:02.838Z,8.25
2019-04-03T07:06:00.811Z,8.22
2019-04-03T07:07:01.818Z,8.18
2019-04-03T07:08:01.278Z,8.31
2019-04-03T07:09:00.720Z,8.28
2019-04-03T07:10:02.370Z,8.31
2019-04-03T07:11:00.728Z,8.18
2019-04-03T07:12:00.669Z,8.29
2019-04-03T07:13:00.662Z,8.45
2019-04-03T07:14:00.595Z,8.49
2019-04-03T07:15:02.136Z,8.54
2019-04-03T07:16:00.604Z,8.54
2019-04-03T07:17:01.482Z,8.64
2019-04-03T07:18:07.331Z,8.50
2019-04-03T07:19:00.450Z,8.57
2019-04-03T07:20:12.529Z,8.58
2019-04-03T07:21:00.550Z,8.47
2019-04-03T07:22:00.346Z,8.54
2019-04-03T07:23:00.453Z,8.57
2019-04-03T07:24:02.325Z,8.55
2019-04-03T07:25:02.756Z,8.49
2019-04-03T07:26:00.204Z,8.58
2019-04-03T07:27:01.522Z,8.52
2019-04-03T07:28:00.174Z,8.49
2019-04-03T07:29:01.314Z,8.54
2019-04-03T07:30:00.393Z,8.46
2019-04-03T07:31:00.075Z,8.50
2019-04-03T07:32:00.201Z,8.54
2019-04-03T07:33:01.173Z,8.49
2019-04-03T07:34:01.786Z,8.52
2019-04-03T07:35:00.044Z,8.43
2019-04-03T07:35:59.962Z,8.50
2019-04-03T07:37:00.977Z,8.37
2019-04-03T07:38:00.099Z,8.45
2019-04-03T07:38:59.896Z,8.46
2019-04-03T07:40:00.093Z,8.46
2019-04-03T07:40:59.787Z,8.42
2019-04-03T07:42:06.642Z,8.37
2019-04-03T07:42:59.907Z,8.46
2019-04-03T07:43:59.690Z,8.37
2019-04-03T07:45:01.585Z,8.49
2019-04-03T07:46:03.137Z,8.47
2019-04-03T07:46:59.612Z,8.40
2019-04-03T07:47:59.598Z,8.45
2019-04-03T07:49:00.284Z,8.36
2019-04-03T07:49:59.706Z,8.34
2019-04-03T07:50:59.773Z,8.29
2019-04-03T07:51:59.555Z,8.39
2019-04-03T07:52:59.752Z,8.21
2019-04-03T07:53:59.561Z,8.24
2019-04-03T07:54:59.471Z,8.12
2019-04-03T07:55:59.541Z,8.12
2019-04-03T07:56:59.629Z,8.10
2019-04-03T07:57:59.998Z,8.14
2019-04-03T07:59:02.678Z,8.13
2019-04-03T07:59:59.291Z,8.22
2019-04-03T08:00:59.220Z,8.25
2019-04-03T08:01:59.432Z,8.25
2019-04-03T08:02:59.249Z,8.25
2019-04-03T08:03:59.129Z,8.17
2019-04-03T08:05:00.395Z,8.18
2019-04-03T08:05:59.313Z,8.13
2019-04-03T08:06:59.114Z,7.99
2019-04-03T08:08:01.505Z,8.00
2019-04-03T08:09:07.365Z,8.06
2019-04-03T08:10:00.021Z,8.02
2019-04-03T08:10:59.727Z,7.91
2019-04-03T08:11:58.964Z,7.94
2019-04-03T08:12:59.902Z,7.81
2019-04-03T08:13:59.062Z,7.84
2019-04-03T08:14:59.175Z,7.91
2019-04-03T08:15:58.781Z,7.77
2019-04-03T08:16:58.730Z,7.77
2019-04-03T08:17:59.074Z,7.71
2019-04-03T08:18:58.696Z,7.69
2019-04-03T08:19:58.717Z,7.71
2019-04-03T08:21:01.233Z,7.77
2019-04-03T08:22:01.122Z,7.71
2019-04-03T08:22:58.582Z,7.66
2019-04-03T08:23:58.588Z,7.76
2019-04-03T08:24:58.532Z,7.73
2019-04-03T08:25:58.483Z,7.69
2019-04-03T08:26:58.450Z,7.69
2019-04-03T08:27:58.451Z,7.67
2019-04-03T08:29:00.673Z,7.63
2019-04-03T08:29:58.330Z,7.67
2019-04-03T08:30:58.329Z,7.76
2019-04-03T08:31:58.285Z,7.79
2019-04-03T08:32:58.510Z,7.81
2019-04-03T08:33:59.548Z,7.77
2019-04-03T08:34:58.219Z,7.95
2019-04-03T08:35:58.200Z,7.81
2019-04-03T08:37:00.141Z,7.82
2019-04-03T08:37:58.223Z,7.85
2019-04-03T08:38:58.179Z,7.85
2019-04-03T08:39:58.902Z,7.91
2019-04-03T08:40:58.246Z,7.92
2019-04-03T08:41:58.119Z,7.86
2019-04-03T08:43:00.402Z,7.99
2019-04-03T08:43:57.979Z,7.89
2019-04-03T08:44:58.038Z,7.92
2019-04-03T08:45:57.891Z,7.96
2019-04-03T08:46:57.850Z,7.99
2019-04-03T08:47:58.120Z,7.84
2019-04-03T08:48:57.785Z,7.81
2019-04-03T08:49:58.369Z,7.82
2019-04-03T08:50:58.409Z,7.81
2019-04-03T08:51:57.729Z,7.86
2019-04-03T08:52:57.920Z,7.99
2019-04-03T08:53:57.700Z,7.94
2019-04-03T08:54:57.632Z,7.99
2019-04-03T08:55:57.623Z,8.03
2019-04-03T08:56:57.785Z,7.94
2019-04-03T08:57:57.554Z,7.94
2019-04-03T08:58:58.377Z,8.04
2019-04-03T08:59:58.183Z,8.06
2019-04-03T09:00:57.552Z,7.95
2019-04-03T09:01:57.443Z,8.02
2019-04-03T09:02:57.403Z,8.00
2019-04-03T09:03:57.497Z,8.10
2019-04-03T09:04:57.343Z,8.03
2019-04-03T09:05:57.506Z,8.13
2019-04-03T09:06:57.493Z,8.14
2019-04-03T09:07:57.266Z,8.25
2019-04-03T09:08:57.851Z,8.25
2019-04-03T09:10:00.352Z,8.27
2019-04-03T09:10:57.266Z,8.24
2019-04-03T09:11:57.118Z,8.25
2019-04-03T09:12:57.100Z,8.32
2019-04-03T09:13:57.082Z,8.36
2019-04-03T09:14:57.859Z,8.45
2019-04-03T09:16:04.600Z,8.45
2019-04-03T09:16:57.001Z,8.37
2019-04-03T09:18:05.577Z,8.36
2019-04-03T09:18:56.954Z,8.49
2019-04-03T09:19:57.415Z,8.40
2019-04-03T09:20:56.927Z,8.36
2019-04-03T09:21:56.941Z,8.37
2019-04-03T09:22:56.895Z,8.52
2019-04-03T09:23:58.322Z,8.45
2019-04-03T09:24:59.911Z,8.57
2019-04-03T09:25:56.881Z,8.67
2019-04-03T09:26:56.791Z,8.63
2019-04-03T09:28:04.574Z,8.55
2019-04-03T09:28:56.653Z,8.70
2019-04-03T09:29:56.695Z,8.71
2019-04-03T09:30:56.652Z,8.70
2019-04-03T09:31:56.775Z,8.73
2019-04-03T09:32:59.912Z,8.71
2019-04-03T09:34:04.281Z,8.64
2019-04-03T09:34:56.476Z,8.60
2019-04-03T09:36:04.324Z,8.67
2019-04-03T09:37:06.325Z,8.57
2019-04-03T09:37:56.411Z,8.61
2019-04-03T09:39:03.068Z,8.67
2019-04-03T09:39:56.348Z,8.75
2019-04-03T09:40:56.288Z,8.80
2019-04-03T09:41:56.328Z,8.88
2019-04-03T09:43:25.106Z,8.85
2019-04-03T09:43:56.264Z,8.82
2019-04-03T09:45:17.257Z,8.82
2019-04-03T09:46:00.299Z,8.86
2019-04-03T09:46:56.268Z,8.89
2019-04-03T09:47:56.175Z,9.00
2019-04-03T09:48:56.060Z,9.16
2019-04-03T09:49:56.327Z,9.24
2019-04-03T09:50:56.448Z,9.30
2019-04-03T09:51:57.068Z,9.32
2019-04-03T09:52:56.064Z,9.48
2019-04-03T09:53:57.890Z,9.41
2019-04-03T09:54:55.903Z,9.50
2019-04-03T09:55:55.920Z,9.59
2019-04-03T09:57:01.696Z,9.70
2019-04-03T09:57:55.815Z,9.80
2019-04-03T09:58:58.116Z,9.91
2019-04-03T09:59:55.836Z,9.80
2019-04-03T10:01:05.003Z,9.68
2019-04-03T10:01:55.892Z,9.71
2019-04-03T10:03:56.254Z,9.52
2019-04-03T10:05:24.687Z,9.52
2019-04-03T10:05:55.599Z,9.55
2019-04-03T10:06:56.655Z,9.63
2019-04-03T10:07:55.522Z,9.62
2019-04-03T10:09:02.217Z,9.52
2019-04-03T10:09:55.469Z,9.52
2019-04-03T10:11:19.576Z,9.56
2019-04-03T10:11:55.414Z,9.56
2019-04-03T10:13:10.199Z,9.55
2019-04-03T10:13:57.781Z,9.52
2019-04-03T10:14:58.436Z,9.40
2019-04-03T10:15:55.283Z,9.31
2019-04-03T10:16:55.273Z,9.22
2019-04-03T10:17:55.553Z,9.15
2019-04-03T10:18:55.197Z,9.10
2019-04-03T10:19:55.181Z,9.13
2019-04-03T10:20:55.328Z,9.20
2019-04-03T10:21:55.251Z,9.17
2019-04-03T10:22:56.244Z,9.16
2019-04-03T10:23:55.250Z,9.20
2019-04-03T10:24:55.274Z,9.24
2019-04-03T10:25:54.995Z,9.15
2019-04-03T10:26:55.103Z,9.20
2019-04-03T10:27:54.949Z,9.16
2019-04-03T10:28:54.909Z,9.23
2019-04-03T10:29:56.020Z,9.45
2019-04-03T10:30:54.906Z,9.50
2019-04-03T10:31:56.070Z,9.50
2019-04-03T10:32:54.805Z,9.49
2019-04-03T10:33:54.770Z,9.56
2019-04-03T10:34:57.091Z,9.59
2019-04-03T10:35:55.846Z,9.65
2019-04-03T10:36:54.818Z,9.71
2019-04-03T10:37:54.676Z,9.68
2019-04-03T10:38:54.698Z,9.71
2019-04-03T10:40:56.277Z,9.80
2019-04-03T10:41:55.047Z,9.85
2019-04-03T10:42:54.541Z,9.81
2019-04-03T10:43:54.700Z,9.85
2019-04-03T10:45:16.618Z,9.77
2019-04-03T10:45:54.444Z,9.88
2019-04-03T10:46:54.638Z,9.74
2019-04-03T10:47:56.593Z,9.56
2019-04-03T10:50:19.603Z,9.49
2019-04-03T10:51:19.776Z,9.58
2019-04-03T10:55:28.504Z,9.53
2019-04-03T10:56:01.374Z,9.71
2019-04-03T10:57:03.401Z,9.74
2019-04-03T10:59:10.728Z,9.91
2019-04-03T11:00:01.227Z,9.91
2019-04-03T11:01:03.368Z,9.92
2019-04-03T11:02:01.280Z,10.02
2019-04-03T11:03:02.295Z,10.07
2019-04-03T11:04:01.248Z,10.06
2019-04-03T11:09:07.907Z,10.18
2019-04-03T11:09:31.804Z,10.22
2019-04-03T11:10:46.497Z,10.18
2019-04-03T11:11:31.675Z,10.02
2019-04-03T11:14:08.650Z,10.25
2019-04-03T11:16:34.454Z,10.24
2019-04-03T11:17:33.439Z,10.24
2019-04-03T11:18:40.961Z,10.31
2019-04-03T11:19:33.289Z,10.28
2019-04-03T11:20:41.016Z,10.31
2019-04-03T11:21:33.192Z,10.31
2019-04-03T11:22:41.091Z,10.35
2019-04-03T11:23:38.986Z,10.43
2019-04-03T11:24:33.469Z,10.44
2019-04-03T11:25:33.096Z,10.55
2019-04-03T11:27:42.085Z,10.58
2019-04-03T11:28:36.671Z,10.65
2019-04-03T11:29:33.177Z,10.70
2019-04-03T11:30:33.997Z,10.65
2019-04-03T11:31:36.073Z,10.75
2019-04-03T11:32:47.563Z,10.80
2019-04-03T11:33:33.012Z,10.69
2019-04-03T11:34:33.963Z,10.75
2019-04-03T11:35:32.868Z,10.62
2019-04-03T11:36:32.811Z,10.63
2019-04-03T11:37:33.771Z,10.63
2019-04-03T11:38:34.762Z,10.54
2019-04-03T11:39:33.138Z,10.62
2019-04-03T11:40:32.730Z,10.66
2019-04-03T11:41:32.626Z,10.76
2019-04-03T11:42:32.642Z,10.68
2019-04-03T11:43:32.625Z,10.55
2019-04-03T11:44:32.773Z,10.43
2019-04-03T11:45:32.675Z,10.47
2019-04-03T11:46:32.570Z,10.47
2019-04-03T11:47:32.549Z,10.44
2019-04-03T11:48:32.493Z,10.38
2019-04-03T11:49:32.396Z,10.35
2019-04-03T11:50:32.471Z,10.32
2019-04-03T11:51:33.983Z,10.46
2019-04-03T11:52:32.405Z,10.52
2019-04-03T11:53:33.046Z,10.44
2019-04-03T11:54:32.248Z,10.51
2019-04-03T11:55:32.220Z,10.63
2019-04-03T11:56:32.556Z,10.76
2019-04-03T11:57:32.208Z,10.81
2019-04-03T11:58:32.153Z,10.93
2019-04-03T11:59:32.117Z,10.95
2019-04-03T12:00:32.101Z,11.19
2019-04-03T12:01:32.063Z,11.20
2019-04-03T12:02:32.034Z,11.20
2019-04-03T12:03:32.066Z,11.24
2019-04-03T12:04:32.370Z,11.24
2019-04-03T12:05:31.928Z,11.36
2019-04-03T12:06:33.236Z,11.28
2019-04-03T12:07:31.883Z,11.42
2019-04-03T12:08:39.485Z,11.38
2019-04-03T12:09:32.472Z,11.49
2019-04-03T12:10:38.472Z,11.38
2019-04-03T12:11:31.795Z,11.49
2019-04-03T12:12:33.917Z,11.51
2019-04-03T12:13:31.769Z,11.57
2019-04-03T12:14:32.690Z,11.57
2019-04-03T12:15:33.788Z,11.57
2019-04-03T12:16:32.662Z,11.67
2019-04-03T12:17:31.609Z,11.81
2019-04-03T12:18:34.307Z,11.81
2019-04-03T12:19:31.655Z,11.85
2019-04-03T12:20:43.378Z,11.88
2019-04-03T12:21:31.514Z,11.94
2019-04-03T12:22:46.309Z,11.88
2019-04-03T12:23:31.414Z,12.00
2019-04-03T12:24:31.634Z,12.01
2019-04-03T12:25:34.087Z,12.01
2019-04-03T12:26:47.164Z,12.01
2019-04-03T12:27:31.590Z,12.01
2019-04-03T12:28:31.599Z,12.00
2019-04-03T12:29:31.253Z,12.03
2019-04-03T12:30:31.588Z,11.96
2019-04-03T12:31:31.359Z,11.98
2019-04-03T12:32:38.395Z,11.98
2019-04-03T12:33:31.189Z,12.04
2019-04-03T12:34:33.113Z,12.00
2019-04-03T12:35:31.077Z,11.87
2019-04-03T12:36:33.175Z,11.63
2019-04-03T12:37:31.346Z,11.59
2019-04-03T12:38:30.993Z,11.49
2019-04-03T12:39:30.982Z,11.44
2019-04-03T12:40:32.830Z,11.31
2019-04-03T12:41:30.977Z,11.33
2019-04-03T12:42:31.101Z,11.16
2019-04-03T12:43:30.865Z,11.21
2019-04-03T12:44:30.896Z,11.17
2019-04-03T12:45:30.801Z,10.94
2019-04-03T12:46:32.828Z,10.87
2019-04-03T12:47:30.744Z,10.93
2019-04-03T12:48:31.713Z,10.76
2019-04-03T12:49:30.672Z,10.76
2019-04-03T12:50:32.701Z,10.60
2019-04-03T12:51:31.531Z,10.62
2019-04-03T12:52:31.070Z,10.60
2019-04-03T12:53:30.567Z,10.58
2019-04-03T12:54:31.584Z,10.60
2019-04-03T12:55:30.578Z,10.63
2019-04-03T12:56:32.581Z,10.72
2019-04-03T12:57:32.147Z,10.65
2019-04-03T12:58:39.024Z,10.66
2019-04-03T12:59:30.409Z,10.66
2019-04-03T13:00:32.690Z,10.66
2019-04-03T13:01:30.349Z,10.73
2019-04-03T13:02:32.332Z,10.83
2019-04-03T13:03:30.339Z,10.86
2019-04-03T13:04:32.864Z,10.84
2019-04-03T13:05:30.214Z,10.83
2019-04-03T13:06:30.276Z,10.80
2019-04-03T13:07:30.559Z,10.88
2019-04-03T13:08:30.518Z,10.84
2019-04-03T13:09:30.123Z,10.80
2019-04-03T13:10:41.513Z,10.72
2019-04-03T13:11:32.644Z,10.88
2019-04-03T13:12:37.239Z,10.94
2019-04-03T13:13:30.357Z,10.95
2019-04-03T13:14:31.498Z,10.99
2019-04-03T13:15:29.969Z,11.03
2019-04-03T13:16:29.901Z,11.02
2019-04-03T13:17:30.093Z,11.03
2019-04-03T13:18:32.151Z,11.01
2019-04-03T13:19:29.853Z,11.08
2019-04-03T13:20:29.987Z,11.23
2019-04-03T13:21:29.764Z,11.27
2019-04-03T13:22:29.952Z,11.24
2019-04-03T13:23:29.745Z,11.28
2019-04-03T13:24:29.690Z,11.33
2019-04-03T13:25:29.699Z,11.28
2019-04-03T13:26:29.648Z,11.44
2019-04-03T13:27:31.707Z,11.46
2019-04-03T13:28:30.690Z,11.42